Main page
METAR-TAF:

METAR-TAF

Airports :

Winnipeg James Armstrong Richardson International Airport

Winnipeg, Manitoba, Canada

latitude: 49-54N, longitude: 097-14W, elevation: 239 m

Current weather observation

The report was made 1 hour and 9 minutes ago, at 12:00 UTC
Wind 3 kt from the North/Northeast
Temperature 16°C
Humidity 68%
Pressure 1021 hPa
Visibility: 24.1 km
Clear sky

METAR: CYWG 141200Z 02003KT 15SM SKC 16/10 A3014 RMK SLP207 DENSITY ALT 900FT

Time: 08:09 (13:09 UTC)

Forecast

The report was made 1 hour and 31 minutes ago, at 11:38 UTC
Forecast valid from 14 at 12 UTC to 15 at 12 UTC
Wind 5 kt from the West/Northwest
Visibility: 10 km
Clear sky
Becoming
from 14 at 13 UTC to 14 at 15 UTC
Wind 12 kt from the North
From 15 at 0300 UTC
Wind 8 kt from the Northeast
Visibility: 10 km
Clear sky
Becoming
from 15 at 10 UTC to 15 at 12 UTC
Wind 10 kt from the South/Southeast

TAF: CYWG 141138Z 1412/1512 30005KT P6SM SKC BECMG 1413/1415 36012KT FM150300 04008KT P6SM SKC BECMG 1510/1512 15010KT RMK NXT FCST BY 141800Z

Weather observations and forecasts of more than 4000 airports (METAR and TAF reports).

The available stations are represented by yellow and red dots on the map.

Hover mouse over dot to see the name of the station.

Then click to see weather observations and forecasts.

To change the map : click on the green buttons with a black cross to zoom in, on the green button with a dash to zoom out, or on the green arrows for adjacent maps.


METAR-TAF: